Jomi — C6VK4 — position and weather

sailwx.info

Track history (hours):
 
Tides and Currents Weather Stations Pressure Air Temp Water Temp Dewpoint Dewpoint Depression Visibility Wind Speed Wind Dir Waves Ship Positions

Jomi

Last reported at 2015-Aug-01 21:33 UTC. Time now 2015-Aug-01 22:18 UTC.
Position N 51°28' E 003°42'.

Length 88 m; draft 4.1 m.

Type: Cargo ship. MMSI: 309701000.

Date/timePositionNaut miles runAvg speedWind from/ knotsBaromVisibWave heightAir tempDewpointWater temp
2015-Aug-01 21:33N 51°28' E 003°42'0 0.0
2015-Aug-01 20:33N 51°28' E 003°42'0 0.0
2015-Aug-01 19:33N 51°28' E 003°42'0 0.0
2015-Aug-01 18:33N 51°28' E 003°42'0 0.0
2015-Aug-01 17:33N 51°28' E 003°42'0 0.0
2015-Aug-01 16:33N 51°28' E 003°42'0 0.0
2015-Aug-01 15:32N 51°28' E 003°42'0 0.0
2015-Aug-01 14:32N 51°28' E 003°42'0 0.0
2015-Aug-01 13:23N 51°28' E 003°42'0 0.0
2015-Aug-01 12:32N 51°28' E 003°42'0 0.0
2015-Aug-01 11:26N 51°28' E 003°42'0 0.0
2015-Aug-01 10:32N 51°28' E 003°42'0 0.0
2015-Aug-01 09:32N 51°28' E 003°42'0 0.0
2015-Aug-01 08:26N 51°28' E 003°42'0 0.0
2015-Aug-01 07:32N 51°28' E 003°42'0 0.0
2015-Aug-01 06:32N 51°28' E 003°42'0 0.0
2015-Aug-01 05:29N 51°28' E 003°42'0 0.0
2015-Aug-01 04:26N 51°28' E 003°42'0 0.0
2015-Aug-01 03:32N 51°28' E 003°42'0 0.0
2015-Aug-01 02:32N 51°28' E 003°42'0 0.0
2015-Aug-01 01:26N 51°28' E 003°42'0 0.0
2015-Aug-01 00:32N 51°28' E 003°42'0 0.0
2015-Jul-31 23:32N 51°28' E 003°42'0 0.0
2015-Jul-31 22:32N 51°28' E 003°42'0 0.0
2015-Jul-31 21:32N 51°28' E 003°42'0 0.0
2015-Jul-31 20:32N 51°28' E 003°42'0 0.0
2015-Jul-31 19:32N 51°28' E 003°42'0 0.0
2015-Jul-31 18:32N 51°28' E 003°42'0 0.0
2015-Jul-31 17:32N 51°28' E 003°42'0 0.0
2015-Jul-31 16:32N 51°28' E 003°42'0 0.0
2015-Jul-31 15:32N 51°28' E 003°42'0 0.0
2015-Jul-31 14:32N 51°28' E 003°42'0 0.0
2015-Jul-31 13:32N 51°28' E 003°42'0 0.0
2015-Jul-31 12:32N 51°28' E 003°42'1 1.2
2015-Jul-31 11:32N 51°27' E 003°43'0 0.0
2015-Jul-31 10:32N 51°27' E 003°43'0 0.0
2015-Jul-31 09:29N 51°27' E 003°43'0 0.0
2015-Jul-31 08:32N 51°27' E 003°43'0 0.0
2015-Jul-31 07:29N 51°27' E 003°43'0 0.0
2015-Jul-31 06:32N 51°27' E 003°43'0 0.0
2015-Jul-31 05:32N 51°27' E 003°43'0 0.0
2015-Jul-31 04:32N 51°27' E 003°43'0 0.0
2015-Jul-31 03:32N 51°27' E 003°43'0 0.0
2015-Jul-31 02:29N 51°27' E 003°43'0 0.0
2015-Jul-31 01:29N 51°27' E 003°43'0 0.0
2015-Jul-31 00:32N 51°27' E 003°43'0 0.0
2015-Jul-30 23:32N 51°27' E 003°43'0 0.0
2015-Jul-30 22:32N 51°27' E 003°43'0 0.0
2015-Jul-30 21:29N 51°27' E 003°43'0 0.0
2015-Jul-30 20:32N 51°27' E 003°43'0 0.0
2015-Jul-30 19:32N 51°27' E 003°43'0 0.0
2015-Jul-30 18:29N 51°27' E 003°43'0 0.0
2015-Jul-30 17:32N 51°27' E 003°43'0 0.0
2015-Jul-30 16:32N 51°27' E 003°43'0 0.0
2015-Jul-30 15:32N 51°27' E 003°43'0 0.0
2015-Jul-30 14:29N 51°27' E 003°43'0 0.0
2015-Jul-30 13:32N 51°27' E 003°43'0 0.0
2015-Jul-30 12:23N 51°27' E 003°43'0 0.4
2015-Jul-30 11:33N 51°27' E 003°42'10 9.6
2015-Jul-30 10:33N 51°30' E 003°28'1410.6
2015-Jul-30 09:13N 51°42' E 003°16'55 6.0
2015-Jul-30 00:11N 52°31' E 003°55'5 8.1
2015-Jul-29 23:33N 52°31' E 004°04'8 8.1
2015-Jul-29 22:33N 52°31' E 004°17'6 6.3
2015-Jul-29 21:33N 52°27' E 004°25'7 7.0
2015-Jul-29 20:33N 52°28' E 004°37'5 5.0
2015-Jul-29 19:33N 52°26' E 004°44'5 5.0
2015-Jul-29 18:32N 52°24' E 004°52'0 0.0
2015-Jul-29 17:31N 52°24' E 004°52'0 0.0
2015-Jul-29 16:31N 52°24' E 004°52'0 0.0
2015-Jul-29 15:31N 52°24' E 004°52'0 0.0
2015-Jul-29 14:31N 52°24' E 004°52'0 0.0
2015-Jul-29 13:30N 52°24' E 004°52'0 0.0
2015-Jul-29 12:33N 52°24' E 004°52'0 0.0
2015-Jul-29 11:33N 52°24' E 004°52'0 0.0
2015-Jul-29 10:33N 52°24' E 004°52'0 0.0
2015-Jul-29 09:33N 52°24' E 004°52'0 0.0
2015-Jul-29 08:33N 52°24' E 004°52'0 0.0
2015-Jul-29 07:33N 52°24' E 004°52'0 0.0
2015-Jul-29 06:33N 52°24' E 004°52'0 0.0
2015-Jul-29 05:33N 52°24' E 004°52'0 0.0
2015-Jul-29 04:33N 52°24' E 004°52'0 0.0
2015-Jul-29 03:32N 52°24' E 004°52'0 0.0
2015-Jul-29 02:32N 52°24' E 004°52'0 0.0
2015-Jul-29 01:32N 52°24' E 004°52'0 0.0
2015-Jul-29 00:32N 52°24' E 004°52'0 0.0
2015-Jul-28 23:32N 52°24' E 004°52'0 0.1
2015-Jul-28 22:34N 52°24' E 004°52'8 7.6
2015-Jul-28 21:33N 52°27' E 004°40'3 3.5
2015-Jul-28 20:34N 52°28' E 004°35'8 7.6
2015-Jul-28 19:33N 52°28' E 004°22'7 6.7
2015-Jul-28 18:33N 52°27' E 004°12'6 6.3
2015-Jul-28 17:33N 52°24' E 004°02'2 1.9
2015-Jul-28 16:34N 52°25' E 004°05'6 5.2
2015-Jul-28 15:29N 52°22' E 003°57'2 1.9
2015-Jul-28 14:33N 52°20' E 003°57'2 2.4
2015-Jul-28 13:33N 52°22' E 003°60'2 2.1
2015-Jul-28 12:33N 52°24' E 004°02'2 2.0
2015-Jul-28 11:33N 52°25' E 004°04'2 2.1
2015-Jul-28 10:33N 52°27' E 004°07'1 0.6
2015-Jul-28 09:33N 52°26' E 004°06'6 6.5
2015-Jul-28 08:33N 52°24' E 003°56'63 7.0
2015-Jul-27 23:33N 52°09' E 002°17'8 8.1
2015-Jul-27 22:33N 52°07' E 002°04'8 8.3
2015-Jul-27 21:34N 52°04' E 001°51'8 8.2
2015-Jul-27 20:34N 52°02' E 001°38'8 7.7
2015-Jul-27 19:33N 51°56' E 001°31'7 7.4
2015-Jul-27 18:33N 51°57' E 001°19'7 7.1
2015-Jul-27 17:33N 52°01' E 001°10'1 1.1
2015-Jul-27 16:34N 52°02' E 001°10'0 0.0
2015-Jul-27 15:33N 52°02' E 001°10'0 0.0
2015-Jul-27 14:33N 52°02' E 001°10'0 0.0
2015-Jul-27 13:33N 52°02' E 001°10'0 0.0
2015-Jul-27 12:33N 52°02' E 001°10'0 0.0
2015-Jul-27 11:33N 52°02' E 001°10'0 0.0
2015-Jul-27 10:33N 52°02' E 001°10'0 0.0
2015-Jul-27 09:33N 52°02' E 001°10'0 0.0
2015-Jul-27 08:33N 52°02' E 001°10'0 0.0
2015-Jul-27 07:33N 52°02' E 001°10'0 0.0
2015-Jul-27 06:33N 52°02' E 001°10'0 0.0
2015-Jul-27 05:33N 52°02' E 001°10'0 0.0
2015-Jul-27 04:33N 52°02' E 001°10'0 0.0
2015-Jul-27 03:33N 52°02' E 001°10'0 0.0
2015-Jul-27 02:33N 52°02' E 001°10'0 0.0
2015-Jul-27 01:33N 52°02' E 001°10'0 0.0
2015-Jul-27 00:34N 52°02' E 001°10'0 0.0
2015-Jul-26 23:33N 52°02' E 001°10'0 0.0
2015-Jul-26 22:34N 52°02' E 001°10'0 0.0
2015-Jul-26 21:33N 52°02' E 001°10'0 0.0
2015-Jul-26 20:33N 52°02' E 001°10'0 0.0
2015-Jul-26 19:33N 52°02' E 001°10'0 0.0
2015-Jul-26 18:34N 52°02' E 001°10'0 0.0
2015-Jul-26 17:33N 52°02' E 001°10'0 0.0
2015-Jul-26 16:33N 52°02' E 001°10'0 0.0
2015-Jul-26 15:33N 52°02' E 001°10'0 0.0
2015-Jul-26 14:33N 52°02' E 001°10'0 0.0
2015-Jul-26 13:33N 52°02' E 001°10'0 0.0
2015-Jul-26 12:33N 52°02' E 001°10'0 0.0
2015-Jul-26 11:33N 52°02' E 001°10'0 0.0
2015-Jul-26 10:33N 52°02' E 001°10'0 0.0
2015-Jul-26 09:33N 52°02' E 001°10'0 0.0
2015-Jul-26 08:33N 52°02' E 001°10'0 0.0
2015-Jul-26 07:34N 52°02' E 001°10'0 0.0
2015-Jul-26 06:33N 52°02' E 001°10'0 0.0
2015-Jul-26 05:34N 52°02' E 001°10'0 0.0
2015-Jul-26 04:34N 52°02' E 001°10'0 0.0
2015-Jul-26 03:34N 52°02' E 001°10'0 0.0
2015-Jul-26 02:34N 52°02' E 001°10'0 0.0
2015-Jul-26 01:34N 52°02' E 001°10'0 0.0
2015-Jul-26 00:33N 52°02' E 001°10'0 0.0
2015-Jul-25 23:33N 52°02' E 001°10'0 0.0
2015-Jul-25 22:34N 52°02' E 001°10'0 0.0
2015-Jul-25 21:34N 52°02' E 001°10'0 0.0
2015-Jul-25 20:33N 52°02' E 001°10'0 0.0
2015-Jul-25 19:33N 52°02' E 001°10'0 0.0
2015-Jul-25 18:33N 52°02' E 001°10'0 0.0
2015-Jul-25 17:33N 52°02' E 001°10'0 0.0
2015-Jul-25 16:33N 52°02' E 001°10'0 0.0
2015-Jul-25 15:33N 52°02' E 001°10'0 0.0
2015-Jul-25 14:33N 52°02' E 001°10'0 0.0
2015-Jul-25 13:33N 52°02' E 001°10'0 0.0
2015-Jul-25 12:33N 52°02' E 001°10'0 0.0
2015-Jul-25 11:33N 52°02' E 001°10'0 0.0
2015-Jul-25 10:33N 52°02' E 001°10'0 0.0
2015-Jul-25 09:33N 52°02' E 001°10'0 0.0
2015-Jul-25 08:33N 52°02' E 001°10'0 0.0
2015-Jul-25 07:33N 52°02' E 001°10'0 0.0
2015-Jul-25 06:33N 52°02' E 001°10'0 0.0
2015-Jul-25 05:34N 52°02' E 001°10'0 0.0
2015-Jul-25 04:34N 52°02' E 001°10'0 0.0
2015-Jul-25 03:33N 52°02' E 001°10'0 0.0
2015-Jul-25 02:33N 52°02' E 001°10'0 0.0
2015-Jul-25 01:34N 52°02' E 001°10'0 0.0
2015-Jul-25 00:33N 52°02' E 001°10'0 0.0
2015-Jul-24 23:33N 52°02' E 001°10'0 0.0
2015-Jul-24 22:33N 52°02' E 001°10'0 0.0
2015-Jul-24 21:33N 52°02' E 001°10'0 0.0
2015-Jul-24 20:33N 52°02' E 001°10'0 0.0
2015-Jul-24 19:33N 52°02' E 001°10'0 0.0
2015-Jul-24 18:33N 52°02' E 001°10'0 0.0
2015-Jul-24 17:33N 52°02' E 001°10'0 0.0
2015-Jul-24 16:33N 52°02' E 001°10'0 0.0
2015-Jul-24 15:34N 52°02' E 001°10'0 0.0
2015-Jul-24 14:33N 52°02' E 001°10'0 0.0
2015-Jul-24 13:34N 52°02' E 001°10'0 0.0
2015-Jul-24 12:33N 52°02' E 001°10'0 0.0
2015-Jul-24 11:33N 52°02' E 001°10'0 0.0
2015-Jul-24 10:33N 52°02' E 001°10'0 0.0
2015-Jul-24 09:33N 52°02' E 001°10'0 0.0
2015-Jul-24 08:34N 52°02' E 001°10'0 0.0
2015-Jul-24 07:33N 52°02' E 001°10'0 0.0
2015-Jul-24 06:34N 52°02' E 001°10'0 0.1
2015-Jul-24 05:33N 52°03' E 001°10'0 0.0
2015-Jul-24 04:34N 52°03' E 001°10'0 0.0
2015-Jul-24 03:33N 52°03' E 001°10'0 0.0
2015-Jul-24 02:33N 52°03' E 001°10'0 0.0
2015-Jul-24 01:33N 52°03' E 001°10'0 0.0
2015-Jul-24 00:33N 52°03' E 001°10'0 0.0
2015-Jul-23 23:33N 52°03' E 001°10'0 0.0
2015-Jul-23 22:33N 52°03' E 001°10'0 0.0
2015-Jul-23 21:33N 52°03' E 001°10'0 0.0
2015-Jul-23 20:34N 52°03' E 001°10'0 0.0
2015-Jul-23 19:33N 52°03' E 001°10'0 0.0
2015-Jul-23 18:33N 52°03' E 001°10'0 0.0
2015-Jul-23 17:34N 52°03' E 001°10'0 0.1
2015-Jul-23 16:33N 52°02' E 001°10'6 6.4
2015-Jul-23 15:33N 51°58' E 001°17'8 8.1
2015-Jul-23 14:33N 51°57' E 001°30'4 4.0
2015-Jul-23 13:33N 51°60' E 001°35'1010.4
2015-Jul-23 12:33N 52°02' E 001°51'1111.1
2015-Jul-23 11:33N 52°02' E 002°09'5710.5
2015-Jul-23 06:07N 52°03' E 003°42'5 9.7
2015-Jul-23 05:33N 52°03' E 003°51'9 8.6
2015-Jul-23 04:33N 51°59' E 004°04'1010.4
2015-Jul-23 03:34N 51°54' E 004°18'2 2.0
2015-Jul-23 02:26N 51°54' E 004°21'0 0.0
2015-Jul-23 01:32N 51°54' E 004°21'0 0.0
2015-Jul-23 00:32N 51°54' E 004°21'0 0.0
2015-Jul-22 23:32N 51°54' E 004°21'0 0.0
2015-Jul-22 22:29N 51°54' E 004°21'  
Track history (hours):
 
Tides and Currents Weather Stations Pressure Air Temp Water Temp Dewpoint Dewpoint Depression Visibility Wind Speed Wind Dir Waves Ship Positions

Jomi

Last reported at 2015-Aug-01 21:33 UTC. Time now 2015-Aug-01 22:18 UTC.
Position N 51°28' E 003°42'.

Length 88 m; draft 4.1 m.

Type: Cargo ship. MMSI: 309701000.

Date/timePositionNaut miles runAvg speedWind from/ knotsBaromVisibWave heightAir tempDewpointWater temp
2015-Aug-01 21:33N 51°28' E 003°42'0 0.0
2015-Aug-01 20:33N 51°28' E 003°42'0 0.0
2015-Aug-01 19:33N 51°28' E 003°42'0 0.0
2015-Aug-01 18:33N 51°28' E 003°42'0 0.0
2015-Aug-01 17:33N 51°28' E 003°42'0 0.0
2015-Aug-01 16:33N 51°28' E 003°42'0 0.0
2015-Aug-01 15:32N 51°28' E 003°42'0 0.0
2015-Aug-01 14:32N 51°28' E 003°42'0 0.0
2015-Aug-01 13:23N 51°28' E 003°42'0 0.0
2015-Aug-01 12:32N 51°28' E 003°42'0 0.0
2015-Aug-01 11:26N 51°28' E 003°42'0 0.0
2015-Aug-01 10:32N 51°28' E 003°42'0 0.0
2015-Aug-01 09:32N 51°28' E 003°42'0 0.0
2015-Aug-01 08:26N 51°28' E 003°42'0 0.0
2015-Aug-01 07:32N 51°28' E 003°42'0 0.0
2015-Aug-01 06:32N 51°28' E 003°42'0 0.0
2015-Aug-01 05:29N 51°28' E 003°42'0 0.0
2015-Aug-01 04:26N 51°28' E 003°42'0 0.0
2015-Aug-01 03:32N 51°28' E 003°42'0 0.0
2015-Aug-01 02:32N 51°28' E 003°42'0 0.0
2015-Aug-01 01:26N 51°28' E 003°42'0 0.0
2015-Aug-01 00:32N 51°28' E 003°42'0 0.0
2015-Jul-31 23:32N 51°28' E 003°42'0 0.0
2015-Jul-31 22:32N 51°28' E 003°42'0 0.0
2015-Jul-31 21:32N 51°28' E 003°42'0 0.0
2015-Jul-31 20:32N 51°28' E 003°42'0 0.0
2015-Jul-31 19:32N 51°28' E 003°42'0 0.0
2015-Jul-31 18:32N 51°28' E 003°42'0 0.0
2015-Jul-31 17:32N 51°28' E 003°42'0 0.0
2015-Jul-31 16:32N 51°28' E 003°42'0 0.0
2015-Jul-31 15:32N 51°28' E 003°42'0 0.0
2015-Jul-31 14:32N 51°28' E 003°42'0 0.0
2015-Jul-31 13:32N 51°28' E 003°42'0 0.0
2015-Jul-31 12:32N 51°28' E 003°42'1 1.2
2015-Jul-31 11:32N 51°27' E 003°43'0 0.0
2015-Jul-31 10:32N 51°27' E 003°43'0 0.0
2015-Jul-31 09:29N 51°27' E 003°43'0 0.0
2015-Jul-31 08:32N 51°27' E 003°43'0 0.0
2015-Jul-31 07:29N 51°27' E 003°43'0 0.0
2015-Jul-31 06:32N 51°27' E 003°43'0 0.0
2015-Jul-31 05:32N 51°27' E 003°43'0 0.0
2015-Jul-31 04:32N 51°27' E 003°43'0 0.0
2015-Jul-31 03:32N 51°27' E 003°43'0 0.0
2015-Jul-31 02:29N 51°27' E 003°43'0 0.0
2015-Jul-31 01:29N 51°27' E 003°43'0 0.0
2015-Jul-31 00:32N 51°27' E 003°43'0 0.0
2015-Jul-30 23:32N 51°27' E 003°43'0 0.0
2015-Jul-30 22:32N 51°27' E 003°43'0 0.0
2015-Jul-30 21:29N 51°27' E 003°43'0 0.0
2015-Jul-30 20:32N 51°27' E 003°43'0 0.0
2015-Jul-30 19:32N 51°27' E 003°43'0 0.0
2015-Jul-30 18:29N 51°27' E 003°43'0 0.0
2015-Jul-30 17:32N 51°27' E 003°43'0 0.0
2015-Jul-30 16:32N 51°27' E 003°43'0 0.0
2015-Jul-30 15:32N 51°27' E 003°43'0 0.0
2015-Jul-30 14:29N 51°27' E 003°43'0 0.0
2015-Jul-30 13:32N 51°27' E 003°43'0 0.0
2015-Jul-30 12:23N 51°27' E 003°43'0 0.4
2015-Jul-30 11:33N 51°27' E 003°42'10 9.6
2015-Jul-30 10:33N 51°30' E 003°28'1410.6
2015-Jul-30 09:13N 51°42' E 003°16'55 6.0
2015-Jul-30 00:11N 52°31' E 003°55'5 8.1
2015-Jul-29 23:33N 52°31' E 004°04'8 8.1
2015-Jul-29 22:33N 52°31' E 004°17'6 6.3
2015-Jul-29 21:33N 52°27' E 004°25'7 7.0
2015-Jul-29 20:33N 52°28' E 004°37'5 5.0
2015-Jul-29 19:33N 52°26' E 004°44'5 5.0
2015-Jul-29 18:32N 52°24' E 004°52'0 0.0
2015-Jul-29 17:31N 52°24' E 004°52'0 0.0
2015-Jul-29 16:31N 52°24' E 004°52'0 0.0
2015-Jul-29 15:31N 52°24' E 004°52'0 0.0
2015-Jul-29 14:31N 52°24' E 004°52'0 0.0
2015-Jul-29 13:30N 52°24' E 004°52'0 0.0
2015-Jul-29 12:33N 52°24' E 004°52'0 0.0
2015-Jul-29 11:33N 52°24' E 004°52'0 0.0
2015-Jul-29 10:33N 52°24' E 004°52'0 0.0
2015-Jul-29 09:33N 52°24' E 004°52'0 0.0
2015-Jul-29 08:33N 52°24' E 004°52'0 0.0
2015-Jul-29 07:33N 52°24' E 004°52'0 0.0
2015-Jul-29 06:33N 52°24' E 004°52'0 0.0
2015-Jul-29 05:33N 52°24' E 004°52'0 0.0
2015-Jul-29 04:33N 52°24' E 004°52'0 0.0
2015-Jul-29 03:32N 52°24' E 004°52'0 0.0
2015-Jul-29 02:32N 52°24' E 004°52'0 0.0
2015-Jul-29 01:32N 52°24' E 004°52'0 0.0
2015-Jul-29 00:32N 52°24' E 004°52'0 0.0
2015-Jul-28 23:32N 52°24' E 004°52'0 0.1
2015-Jul-28 22:34N 52°24' E 004°52'8 7.6
2015-Jul-28 21:33N 52°27' E 004°40'3 3.5
2015-Jul-28 20:34N 52°28' E 004°35'8 7.6
2015-Jul-28 19:33N 52°28' E 004°22'7 6.7
2015-Jul-28 18:33N 52°27' E 004°12'6 6.3
2015-Jul-28 17:33N 52°24' E 004°02'2 1.9
2015-Jul-28 16:34N 52°25' E 004°05'6 5.2
2015-Jul-28 15:29N 52°22' E 003°57'2 1.9
2015-Jul-28 14:33N 52°20' E 003°57'2 2.4
2015-Jul-28 13:33N 52°22' E 003°60'2 2.1
2015-Jul-28 12:33N 52°24' E 004°02'2 2.0
2015-Jul-28 11:33N 52°25' E 004°04'2 2.1
2015-Jul-28 10:33N 52°27' E 004°07'1 0.6
2015-Jul-28 09:33N 52°26' E 004°06'6 6.5
2015-Jul-28 08:33N 52°24' E 003°56'63 7.0
2015-Jul-27 23:33N 52°09' E 002°17'8 8.1
2015-Jul-27 22:33N 52°07' E 002°04'8 8.3
2015-Jul-27 21:34N 52°04' E 001°51'8 8.2
2015-Jul-27 20:34N 52°02' E 001°38'8 7.7
2015-Jul-27 19:33N 51°56' E 001°31'7 7.4
2015-Jul-27 18:33N 51°57' E 001°19'7 7.1
2015-Jul-27 17:33N 52°01' E 001°10'1 1.1
2015-Jul-27 16:34N 52°02' E 001°10'0 0.0
2015-Jul-27 15:33N 52°02' E 001°10'0 0.0
2015-Jul-27 14:33N 52°02' E 001°10'0 0.0
2015-Jul-27 13:33N 52°02' E 001°10'0 0.0
2015-Jul-27 12:33N 52°02' E 001°10'0 0.0
2015-Jul-27 11:33N 52°02' E 001°10'0 0.0
2015-Jul-27 10:33N 52°02' E 001°10'0 0.0
2015-Jul-27 09:33N 52°02' E 001°10'0 0.0
2015-Jul-27 08:33N 52°02' E 001°10'0 0.0
2015-Jul-27 07:33N 52°02' E 001°10'0 0.0
2015-Jul-27 06:33N 52°02' E 001°10'0 0.0
2015-Jul-27 05:33N 52°02' E 001°10'0 0.0
2015-Jul-27 04:33N 52°02' E 001°10'0 0.0
2015-Jul-27 03:33N 52°02' E 001°10'0 0.0
2015-Jul-27 02:33N 52°02' E 001°10'0 0.0
2015-Jul-27 01:33N 52°02' E 001°10'0 0.0
2015-Jul-27 00:34N 52°02' E 001°10'0 0.0
2015-Jul-26 23:33N 52°02' E 001°10'0 0.0
2015-Jul-26 22:34N 52°02' E 001°10'0 0.0
2015-Jul-26 21:33N 52°02' E 001°10'0 0.0
2015-Jul-26 20:33N 52°02' E 001°10'0 0.0
2015-Jul-26 19:33N 52°02' E 001°10'0 0.0
2015-Jul-26 18:34N 52°02' E 001°10'0 0.0
2015-Jul-26 17:33N 52°02' E 001°10'0 0.0
2015-Jul-26 16:33N 52°02' E 001°10'0 0.0
2015-Jul-26 15:33N 52°02' E 001°10'0 0.0
2015-Jul-26 14:33N 52°02' E 001°10'0 0.0
2015-Jul-26 13:33N 52°02' E 001°10'0 0.0
2015-Jul-26 12:33N 52°02' E 001°10'0 0.0
2015-Jul-26 11:33N 52°02' E 001°10'0 0.0
2015-Jul-26 10:33N 52°02' E 001°10'0 0.0
2015-Jul-26 09:33N 52°02' E 001°10'0 0.0
2015-Jul-26 08:33N 52°02' E 001°10'0 0.0
2015-Jul-26 07:34N 52°02' E 001°10'0 0.0
2015-Jul-26 06:33N 52°02' E 001°10'0 0.0
2015-Jul-26 05:34N 52°02' E 001°10'0 0.0
2015-Jul-26 04:34N 52°02' E 001°10'0 0.0
2015-Jul-26 03:34N 52°02' E 001°10'0 0.0
2015-Jul-26 02:34N 52°02' E 001°10'0 0.0
2015-Jul-26 01:34N 52°02' E 001°10'0 0.0
2015-Jul-26 00:33N 52°02' E 001°10'0 0.0
2015-Jul-25 23:33N 52°02' E 001°10'0 0.0
2015-Jul-25 22:34N 52°02' E 001°10'0 0.0
2015-Jul-25 21:34N 52°02' E 001°10'0 0.0
2015-Jul-25 20:33N 52°02' E 001°10'0 0.0
2015-Jul-25 19:33N 52°02' E 001°10'0 0.0
2015-Jul-25 18:33N 52°02' E 001°10'0 0.0
2015-Jul-25 17:33N 52°02' E 001°10'0 0.0
2015-Jul-25 16:33N 52°02' E 001°10'0 0.0
2015-Jul-25 15:33N 52°02' E 001°10'0 0.0
2015-Jul-25 14:33N 52°02' E 001°10'0 0.0
2015-Jul-25 13:33N 52°02' E 001°10'0 0.0
2015-Jul-25 12:33N 52°02' E 001°10'0 0.0
2015-Jul-25 11:33N 52°02' E 001°10'0 0.0
2015-Jul-25 10:33N 52°02' E 001°10'0 0.0
2015-Jul-25 09:33N 52°02' E 001°10'0 0.0
2015-Jul-25 08:33N 52°02' E 001°10'0 0.0
2015-Jul-25 07:33N 52°02' E 001°10'0 0.0
2015-Jul-25 06:33N 52°02' E 001°10'0 0.0
2015-Jul-25 05:34N 52°02' E 001°10'0 0.0
2015-Jul-25 04:34N 52°02' E 001°10'0 0.0
2015-Jul-25 03:33N 52°02' E 001°10'0 0.0
2015-Jul-25 02:33N 52°02' E 001°10'0 0.0
2015-Jul-25 01:34N 52°02' E 001°10'0 0.0
2015-Jul-25 00:33N 52°02' E 001°10'0 0.0
2015-Jul-24 23:33N 52°02' E 001°10'0 0.0
2015-Jul-24 22:33N 52°02' E 001°10'0 0.0
2015-Jul-24 21:33N 52°02' E 001°10'0 0.0
2015-Jul-24 20:33N 52°02' E 001°10'0 0.0
2015-Jul-24 19:33N 52°02' E 001°10'0 0.0
2015-Jul-24 18:33N 52°02' E 001°10'0 0.0
2015-Jul-24 17:33N 52°02' E 001°10'0 0.0
2015-Jul-24 16:33N 52°02' E 001°10'0 0.0
2015-Jul-24 15:34N 52°02' E 001°10'0 0.0
2015-Jul-24 14:33N 52°02' E 001°10'0 0.0
2015-Jul-24 13:34N 52°02' E 001°10'0 0.0
2015-Jul-24 12:33N 52°02' E 001°10'0 0.0
2015-Jul-24 11:33N 52°02' E 001°10'0 0.0
2015-Jul-24 10:33N 52°02' E 001°10'0 0.0
2015-Jul-24 09:33N 52°02' E 001°10'0 0.0
2015-Jul-24 08:34N 52°02' E 001°10'0 0.0
2015-Jul-24 07:33N 52°02' E 001°10'0 0.0
2015-Jul-24 06:34N 52°02' E 001°10'0 0.1
2015-Jul-24 05:33N 52°03' E 001°10'0 0.0
2015-Jul-24 04:34N 52°03' E 001°10'0 0.0
2015-Jul-24 03:33N 52°03' E 001°10'0 0.0
2015-Jul-24 02:33N 52°03' E 001°10'0 0.0
2015-Jul-24 01:33N 52°03' E 001°10'0 0.0
2015-Jul-24 00:33N 52°03' E 001°10'0 0.0
2015-Jul-23 23:33N 52°03' E 001°10'0 0.0
2015-Jul-23 22:33N 52°03' E 001°10'0 0.0
2015-Jul-23 21:33N 52°03' E 001°10'0 0.0
2015-Jul-23 20:34N 52°03' E 001°10'0 0.0
2015-Jul-23 19:33N 52°03' E 001°10'0 0.0
2015-Jul-23 18:33N 52°03' E 001°10'0 0.0
2015-Jul-23 17:34N 52°03' E 001°10'0 0.1
2015-Jul-23 16:33N 52°02' E 001°10'6 6.4
2015-Jul-23 15:33N 51°58' E 001°17'8 8.1
2015-Jul-23 14:33N 51°57' E 001°30'4 4.0
2015-Jul-23 13:33N 51°60' E 001°35'1010.4
2015-Jul-23 12:33N 52°02' E 001°51'1111.1
2015-Jul-23 11:33N 52°02' E 002°09'5710.5
2015-Jul-23 06:07N 52°03' E 003°42'5 9.7
2015-Jul-23 05:33N 52°03' E 003°51'9 8.6
2015-Jul-23 04:33N 51°59' E 004°04'1010.4
2015-Jul-23 03:34N 51°54' E 004°18'2 2.0
2015-Jul-23 02:26N 51°54' E 004°21'0 0.0
2015-Jul-23 01:32N 51°54' E 004°21'0 0.0
2015-Jul-23 00:32N 51°54' E 004°21'0 0.0
2015-Jul-22 23:32N 51°54' E 004°21'0 0.0
2015-Jul-22 22:29N 51°54' E 004°21'  

Dump ship's entire track history